sensor_id;sensor_type;location;lat;lon;timestamp;P1;durP1;ratioP1;P2;durP2;ratioP2
59052;SDS011;44843;44.728;10.396;2023-04-06T00:00:00;4.95;;;3.60;;
59052;SDS011;44843;44.728;10.396;2023-04-06T00:02:25;5.07;;;3.58;;
59052;SDS011;44843;44.728;10.396;2023-04-06T00:04:50;8.43;;;3.40;;
59052;SDS011;44843;44.728;10.396;2023-04-06T00:07:16;7.47;;;4.07;;
59052;SDS011;44843;44.728;10.396;2023-04-06T00:09:41;5.53;;;3.70;;
59052;SDS011;44843;44.728;10.396;2023-04-06T00:12:06;6.75;;;3.90;;
59052;SDS011;44843;44.728;10.396;2023-04-06T00:14:31;7.15;;;3.47;;
59052;SDS011;44843;44.728;10.396;2023-04-06T00:16:56;6.30;;;4.18;;
59052;SDS011;44843;44.728;10.396;2023-04-06T00:19:22;4.72;;;3.33;;
59052;SDS011;44843;44.728;10.396;2023-04-06T00:21:47;4.57;;;3.40;;
59052;SDS011;44843;44.728;10.396;2023-04-06T00:24:12;4.82;;;2.88;;
59052;SDS011;44843;44.728;10.396;2023-04-06T00:26:38;6.13;;;3.60;;
59052;SDS011;44843;44.728;10.396;2023-04-06T00:29:03;5.30;;;3.75;;
59052;SDS011;44843;44.728;10.396;2023-04-06T00:31:28;5.70;;;3.58;;
59052;SDS011;44843;44.728;10.396;2023-04-06T00:33:53;5.35;;;3.90;;
59052;SDS011;44843;44.728;10.396;2023-04-06T00:36:19;4.00;;;3.25;;
59052;SDS011;44843;44.728;10.396;2023-04-06T00:38:44;5.55;;;3.58;;
59052;SDS011;44843;44.728;10.396;2023-04-06T00:41:10;4.93;;;3.38;;
59052;SDS011;44843;44.728;10.396;2023-04-06T00:43:35;6.63;;;3.60;;
59052;SDS011;44843;44.728;10.396;2023-04-06T00:46:00;5.40;;;3.90;;
59052;SDS011;44843;44.728;10.396;2023-04-06T00:48:26;5.07;;;3.55;;
59052;SDS011;44843;44.728;10.396;2023-04-06T00:50:51;6.93;;;3.88;;
59052;SDS011;44843;44.728;10.396;2023-04-06T00:53:16;4.80;;;3.72;;
59052;SDS011;44843;44.728;10.396;2023-04-06T00:55:42;6.90;;;3.65;;
59052;SDS011;44843;44.728;10.396;2023-04-06T00:58:07;4.45;;;3.55;;
59052;SDS011;44843;44.728;10.396;2023-04-06T01:00:33;6.45;;;3.53;;
59052;SDS011;44843;44.728;10.396;2023-04-06T01:02:58;4.70;;;3.63;;
59052;SDS011;44843;44.728;10.396;2023-04-06T01:48:57;6.75;;;3.60;;
59052;SDS011;44843;44.728;10.396;2023-04-06T01:51:22;6.85;;;3.55;;
59052;SDS011;44843;44.728;10.396;2023-04-06T01:53:49;5.55;;;3.40;;
59052;SDS011;44843;44.728;10.396;2023-04-06T01:56:14;5.18;;;3.38;;
59052;SDS011;44843;44.728;10.396;2023-04-06T01:58:40;5.47;;;3.40;;
59052;SDS011;44843;44.728;10.396;2023-04-06T02:42:14;4.63;;;2.60;;
59052;SDS011;44843;44.728;10.396;2023-04-06T02:44:40;6.50;;;2.90;;
59052;SDS011;44843;44.728;10.396;2023-04-06T04:57:49;3.65;;;2.20;;
59052;SDS011;44843;44.728;10.396;2023-04-06T06:30:07;2.03;;;1.50;;
59052;SDS011;44843;44.728;10.396;2023-04-06T06:32:33;2.83;;;1.63;;
59052;SDS011;44843;44.728;10.396;2023-04-06T06:34:58;3.45;;;1.70;;
59052;SDS011;44843;44.728;10.396;2023-04-06T06:37:23;2.33;;;2.10;;
59052;SDS011;44843;44.728;10.396;2023-04-06T06:39:48;4.30;;;1.90;;
59052;SDS011;44843;44.728;10.396;2023-04-06T06:42:14;2.58;;;2.20;;
59052;SDS011;44843;44.728;10.396;2023-04-06T06:44:39;3.83;;;2.30;;
59052;SDS011;44843;44.728;10.396;2023-04-06T06:47:04;4.72;;;2.13;;
59052;SDS011;44843;44.728;10.396;2023-04-06T06:49:30;3.10;;;2.05;;
59052;SDS011;44843;44.728;10.396;2023-04-06T06:51:55;3.38;;;2.03;;
59052;SDS011;44843;44.728;10.396;2023-04-06T06:54:20;4.40;;;2.38;;
59052;SDS011;44843;44.728;10.396;2023-04-06T06:56:45;3.08;;;2.45;;
59052;SDS011;44843;44.728;10.396;2023-04-06T06:59:11;3.85;;;2.10;;
59052;SDS011;44843;44.728;10.396;2023-04-06T07:01:36;7.80;;;2.20;;
59052;SDS011;44843;44.728;10.396;2023-04-06T07:04:01;8.40;;;2.40;;
59052;SDS011;44843;44.728;10.396;2023-04-06T07:06:27;4.10;;;2.22;;
59052;SDS011;44843;44.728;10.396;2023-04-06T07:08:52;4.05;;;2.10;;
59052;SDS011;44843;44.728;10.396;2023-04-06T07:11:17;3.53;;;2.40;;
59052;SDS011;44843;44.728;10.396;2023-04-06T07:13:42;4.10;;;2.15;;
59052;SDS011;44843;44.728;10.396;2023-04-06T07:16:08;4.38;;;2.20;;
59052;SDS011;44843;44.728;10.396;2023-04-06T07:18:33;2.85;;;2.47;;
59052;SDS011;44843;44.728;10.396;2023-04-06T07:20:58;5.72;;;2.58;;
59052;SDS011;44843;44.728;10.396;2023-04-06T07:23:23;4.15;;;2.40;;
59052;SDS011;44843;44.728;10.396;2023-04-06T07:25:49;2.75;;;2.15;;
59052;SDS011;44843;44.728;10.396;2023-04-06T07:28:17;3.25;;;1.92;;
59052;SDS011;44843;44.728;10.396;2023-04-06T07:30:42;3.55;;;2.20;;
59052;SDS011;44843;44.728;10.396;2023-04-06T07:33:08;5.30;;;2.35;;
59052;SDS011;44843;44.728;10.396;2023-04-06T07:35:33;2.78;;;1.73;;
59052;SDS011;44843;44.728;10.396;2023-04-06T07:37:59;3.15;;;2.13;;
59052;SDS011;44843;44.728;10.396;2023-04-06T07:40:25;3.70;;;2.15;;
59052;SDS011;44843;44.728;10.396;2023-04-06T07:42:51;4.03;;;2.10;;
59052;SDS011;44843;44.728;10.396;2023-04-06T07:45:17;3.03;;;2.15;;
59052;SDS011;44843;44.728;10.396;2023-04-06T07:47:42;3.58;;;2.45;;
59052;SDS011;44843;44.728;10.396;2023-04-06T07:50:07;3.45;;;2.58;;
59052;SDS011;44843;44.728;10.396;2023-04-06T07:52:33;6.82;;;2.10;;
59052;SDS011;44843;44.728;10.396;2023-04-06T07:54:58;3.15;;;2.00;;
59052;SDS011;44843;44.728;10.396;2023-04-06T07:57:24;5.60;;;3.42;;
59052;SDS011;44843;44.728;10.396;2023-04-06T07:59:50;5.07;;;3.63;;
59052;SDS011;44843;44.728;10.396;2023-04-06T08:02:15;5.80;;;3.28;;
59052;SDS011;44843;44.728;10.396;2023-04-06T08:04:40;4.65;;;2.90;;
59052;SDS011;44843;44.728;10.396;2023-04-06T08:07:05;5.55;;;2.85;;
59052;SDS011;44843;44.728;10.396;2023-04-06T08:09:32;3.45;;;2.88;;
59052;SDS011;44843;44.728;10.396;2023-04-06T08:11:58;4.93;;;2.80;;
59052;SDS011;44843;44.728;10.396;2023-04-06T08:14:23;5.32;;;2.50;;
59052;SDS011;44843;44.728;10.396;2023-04-06T08:16:49;5.53;;;3.17;;
59052;SDS011;44843;44.728;10.396;2023-04-06T08:19:14;3.42;;;2.45;;
59052;SDS011;44843;44.728;10.396;2023-04-06T08:21:42;4.15;;;2.75;;
59052;SDS011;44843;44.728;10.396;2023-04-06T08:24:07;6.47;;;3.22;;
59052;SDS011;44843;44.728;10.396;2023-04-06T08:26:32;3.15;;;2.75;;
59052;SDS011;44843;44.728;10.396;2023-04-06T08:28:58;5.93;;;3.00;;
59052;SDS011;44843;44.728;10.396;2023-04-06T08:31:23;4.18;;;2.60;;
59052;SDS011;44843;44.728;10.396;2023-04-06T08:33:48;5.03;;;2.50;;
59052;SDS011;44843;44.728;10.396;2023-04-06T08:36:14;5.35;;;2.80;;
59052;SDS011;44843;44.728;10.396;2023-04-06T08:38:39;6.38;;;2.83;;
59052;SDS011;44843;44.728;10.396;2023-04-06T08:41:11;9.60;;;3.15;;
59052;SDS011;44843;44.728;10.396;2023-04-06T08:43:41;5.80;;;3.10;;
59052;SDS011;44843;44.728;10.396;2023-04-06T08:46:07;8.82;;;3.35;;
59052;SDS011;44843;44.728;10.396;2023-04-06T08:48:33;9.98;;;3.38;;
59052;SDS011;44843;44.728;10.396;2023-04-06T08:50:59;5.10;;;3.28;;
59052;SDS011;44843;44.728;10.396;2023-04-06T08:53:25;8.35;;;3.17;;
59052;SDS011;44843;44.728;10.396;2023-04-06T08:55:50;3.88;;;2.50;;
59052;SDS011;44843;44.728;10.396;2023-04-06T08:58:16;6.35;;;3.83;;
59052;SDS011;44843;44.728;10.396;2023-04-06T09:00:41;4.38;;;3.00;;
59052;SDS011;44843;44.728;10.396;2023-04-06T09:03:07;5.55;;;3.28;;
59052;SDS011;44843;44.728;10.396;2023-04-06T09:05:33;5.30;;;3.30;;
59052;SDS011;44843;44.728;10.396;2023-04-06T09:07:58;5.28;;;3.58;;
59052;SDS011;44843;44.728;10.396;2023-04-06T09:10:23;5.25;;;3.58;;
59052;SDS011;44843;44.728;10.396;2023-04-06T09:12:50;7.20;;;3.53;;
59052;SDS011;44843;44.728;10.396;2023-04-06T09:15:19;5.93;;;3.35;;
59052;SDS011;44843;44.728;10.396;2023-04-06T09:17:44;3.92;;;3.10;;
59052;SDS011;44843;44.728;10.396;2023-04-06T09:20:11;7.43;;;3.75;;
59052;SDS011;44843;44.728;10.396;2023-04-06T09:22:37;6.75;;;3.10;;
59052;SDS011;44843;44.728;10.396;2023-04-06T09:25:02;5.32;;;2.97;;
59052;SDS011;44843;44.728;10.396;2023-04-06T09:27:31;6.03;;;3.60;;
59052;SDS011;44843;44.728;10.396;2023-04-06T09:30:06;7.25;;;3.60;;
59052;SDS011;44843;44.728;10.396;2023-04-06T09:32:31;9.00;;;4.00;;
59052;SDS011;44843;44.728;10.396;2023-04-06T09:35:07;5.57;;;3.00;;
59052;SDS011;44843;44.728;10.396;2023-04-06T09:37:32;4.57;;;2.85;;
59052;SDS011;44843;44.728;10.396;2023-04-06T09:40:04;6.10;;;3.05;;
59052;SDS011;44843;44.728;10.396;2023-04-06T09:42:30;3.95;;;2.88;;
59052;SDS011;44843;44.728;10.396;2023-04-06T09:44:55;3.65;;;3.03;;
59052;SDS011;44843;44.728;10.396;2023-04-06T09:47:21;4.18;;;3.45;;
59052;SDS011;44843;44.728;10.396;2023-04-06T09:49:48;5.85;;;3.17;;
59052;SDS011;44843;44.728;10.396;2023-04-06T09:52:15;3.55;;;2.70;;
59052;SDS011;44843;44.728;10.396;2023-04-06T09:54:41;5.80;;;2.95;;
59052;SDS011;44843;44.728;10.396;2023-04-06T09:57:11;5.10;;;2.85;;
59052;SDS011;44843;44.728;10.396;2023-04-06T10:02:24;5.45;;;3.75;;
59052;SDS011;44843;44.728;10.396;2023-04-06T10:04:54;7.20;;;3.25;;
59052;SDS011;44843;44.728;10.396;2023-04-06T10:07:21;6.18;;;3.85;;
59052;SDS011;44843;44.728;10.396;2023-04-06T10:09:46;6.43;;;3.85;;
59052;SDS011;44843;44.728;10.396;2023-04-06T10:12:12;6.55;;;3.67;;
59052;SDS011;44843;44.728;10.396;2023-04-06T10:14:38;7.63;;;4.15;;
59052;SDS011;44843;44.728;10.396;2023-04-06T10:17:04;5.38;;;3.45;;
59052;SDS011;44843;44.728;10.396;2023-04-06T10:22:15;8.18;;;3.40;;
59052;SDS011;44843;44.728;10.396;2023-04-06T10:24:43;7.43;;;3.78;;
59052;SDS011;44843;44.728;10.396;2023-04-06T10:27:08;6.50;;;4.28;;
59052;SDS011;44843;44.728;10.396;2023-04-06T10:29:43;7.72;;;3.53;;
59052;SDS011;44843;44.728;10.396;2023-04-06T10:32:09;5.60;;;3.47;;
59052;SDS011;44843;44.728;10.396;2023-04-06T10:34:34;7.55;;;3.83;;
59052;SDS011;44843;44.728;10.396;2023-04-06T10:37:09;5.82;;;4.40;;
59052;SDS011;44843;44.728;10.396;2023-04-06T10:39:35;6.75;;;4.03;;
59052;SDS011;44843;44.728;10.396;2023-04-06T10:42:10;5.82;;;4.30;;
59052;SDS011;44843;44.728;10.396;2023-04-06T10:44:41;5.28;;;4.25;;
59052;SDS011;44843;44.728;10.396;2023-04-06T10:47:07;6.18;;;4.03;;
59052;SDS011;44843;44.728;10.396;2023-04-06T10:49:40;6.43;;;4.60;;
59052;SDS011;44843;44.728;10.396;2023-04-06T10:52:05;7.90;;;4.43;;
59052;SDS011;44843;44.728;10.396;2023-04-06T10:54:31;12.80;;;4.95;;
59052;SDS011;44843;44.728;10.396;2023-04-06T10:56:57;8.48;;;4.50;;
59052;SDS011;44843;44.728;10.396;2023-04-06T10:59:23;6.07;;;4.18;;
59052;SDS011;44843;44.728;10.396;2023-04-06T11:01:49;6.55;;;4.38;;
59052;SDS011;44843;44.728;10.396;2023-04-06T11:04:15;6.25;;;4.40;;
59052;SDS011;44843;44.728;10.396;2023-04-06T11:06:40;5.57;;;4.45;;
59052;SDS011;44843;44.728;10.396;2023-04-06T11:09:06;6.85;;;4.07;;
59052;SDS011;44843;44.728;10.396;2023-04-06T11:11:31;8.70;;;4.75;;
59052;SDS011;44843;44.728;10.396;2023-04-06T11:13:57;6.55;;;4.55;;
59052;SDS011;44843;44.728;10.396;2023-04-06T11:16:23;8.20;;;5.30;;
59052;SDS011;44843;44.728;10.396;2023-04-06T11:19:02;6.75;;;4.50;;
59052;SDS011;44843;44.728;10.396;2023-04-06T11:21:46;6.20;;;5.20;;
59052;SDS011;44843;44.728;10.396;2023-04-06T11:24:13;8.45;;;4.85;;
59052;SDS011;44843;44.728;10.396;2023-04-06T11:29:04;6.88;;;4.57;;
59052;SDS011;44843;44.728;10.396;2023-04-06T11:31:29;6.53;;;4.90;;
59052;SDS011;44843;44.728;10.396;2023-04-06T11:33:57;7.15;;;5.30;;
59052;SDS011;44843;44.728;10.396;2023-04-06T11:36:23;7.75;;;5.22;;
59052;SDS011;44843;44.728;10.396;2023-04-06T11:38:48;8.15;;;5.38;;
59052;SDS011;44843;44.728;10.396;2023-04-06T11:41:13;7.30;;;5.22;;
59052;SDS011;44843;44.728;10.396;2023-04-06T11:43:45;8.05;;;5.90;;
59052;SDS011;44843;44.728;10.396;2023-04-06T11:46:10;8.07;;;5.13;;
59052;SDS011;44843;44.728;10.396;2023-04-06T11:48:43;6.75;;;5.05;;
59052;SDS011;44843;44.728;10.396;2023-04-06T11:51:08;8.82;;;5.30;;
59052;SDS011;44843;44.728;10.396;2023-04-06T11:53:42;8.23;;;5.18;;
59052;SDS011;44843;44.728;10.396;2023-04-06T11:56:08;8.82;;;5.88;;
59052;SDS011;44843;44.728;10.396;2023-04-06T11:58:33;10.88;;;5.65;;
59052;SDS011;44843;44.728;10.396;2023-04-06T12:01:05;9.55;;;6.20;;
59052;SDS011;44843;44.728;10.396;2023-04-06T12:03:30;8.75;;;5.80;;
59052;SDS011;44843;44.728;10.396;2023-04-06T12:05:55;11.93;;;7.35;;
59052;SDS011;44843;44.728;10.396;2023-04-06T12:08:21;11.02;;;5.70;;
59052;SDS011;44843;44.728;10.396;2023-04-06T12:13:25;8.85;;;5.75;;
59052;SDS011;44843;44.728;10.396;2023-04-06T12:15:51;9.10;;;6.10;;
59052;SDS011;44843;44.728;10.396;2023-04-06T12:18:16;7.53;;;5.35;;
59052;SDS011;44843;44.728;10.396;2023-04-06T12:20:41;7.50;;;5.30;;
59052;SDS011;44843;44.728;10.396;2023-04-06T12:23:07;9.20;;;5.93;;
59052;SDS011;44843;44.728;10.396;2023-04-06T12:25:32;10.43;;;5.97;;
59052;SDS011;44843;44.728;10.396;2023-04-06T12:27:57;9.40;;;6.25;;
59052;SDS011;44843;44.728;10.396;2023-04-06T12:30:23;7.85;;;6.00;;
59052;SDS011;44843;44.728;10.396;2023-04-06T12:32:48;18.42;;;6.90;;
59052;SDS011;44843;44.728;10.396;2023-04-06T12:35:13;14.20;;;6.35;;
59052;SDS011;44843;44.728;10.396;2023-04-06T12:37:40;14.45;;;6.18;;
59052;SDS011;44843;44.728;10.396;2023-04-06T12:40:06;12.10;;;6.20;;
59052;SDS011;44843;44.728;10.396;2023-04-06T12:42:32;11.63;;;5.90;;
59052;SDS011;44843;44.728;10.396;2023-04-06T12:44:57;8.98;;;6.25;;
59052;SDS011;44843;44.728;10.396;2023-04-06T12:47:23;9.77;;;5.55;;
59052;SDS011;44843;44.728;10.396;2023-04-06T12:49:51;11.93;;;6.10;;
59052;SDS011;44843;44.728;10.396;2023-04-06T12:52:16;9.10;;;5.75;;
59052;SDS011;44843;44.728;10.396;2023-04-06T12:54:41;12.27;;;6.32;;
59052;SDS011;44843;44.728;10.396;2023-04-06T12:57:07;11.65;;;6.32;;
59052;SDS011;44843;44.728;10.396;2023-04-06T12:59:32;8.75;;;6.05;;
59052;SDS011;44843;44.728;10.396;2023-04-06T13:02:00;8.20;;;5.30;;
59052;SDS011;44843;44.728;10.396;2023-04-06T13:04:25;7.78;;;5.70;;
59052;SDS011;44843;44.728;10.396;2023-04-06T13:06:51;10.00;;;6.53;;
59052;SDS011;44843;44.728;10.396;2023-04-06T13:09:16;11.35;;;5.68;;
59052;SDS011;44843;44.728;10.396;2023-04-06T13:11:41;19.30;;;6.35;;
59052;SDS011;44843;44.728;10.396;2023-04-06T13:14:07;8.82;;;6.20;;
59052;SDS011;44843;44.728;10.396;2023-04-06T13:16:32;8.05;;;5.78;;
59052;SDS011;44843;44.728;10.396;2023-04-06T13:18:57;9.50;;;6.07;;
59052;SDS011;44843;44.728;10.396;2023-04-06T13:21:23;8.02;;;5.28;;
59052;SDS011;44843;44.728;10.396;2023-04-06T13:23:48;8.77;;;5.90;;
59052;SDS011;44843;44.728;10.396;2023-04-06T13:26:13;7.82;;;5.47;;
59052;SDS011;44843;44.728;10.396;2023-04-06T13:28:40;9.98;;;6.63;;
59052;SDS011;44843;44.728;10.396;2023-04-06T13:31:05;10.48;;;6.03;;
59052;SDS011;44843;44.728;10.396;2023-04-06T13:33:31;9.73;;;6.20;;
59052;SDS011;44843;44.728;10.396;2023-04-06T13:35:56;7.80;;;5.50;;
59052;SDS011;44843;44.728;10.396;2023-04-06T13:38:22;8.65;;;6.00;;
59052;SDS011;44843;44.728;10.396;2023-04-06T13:40:49;10.75;;;6.35;;
59052;SDS011;44843;44.728;10.396;2023-04-06T13:43:14;9.77;;;6.13;;
59052;SDS011;44843;44.728;10.396;2023-04-06T13:45:40;9.30;;;6.43;;
59052;SDS011;44843;44.728;10.396;2023-04-06T13:48:05;11.23;;;6.80;;
59052;SDS011;44843;44.728;10.396;2023-04-06T13:50:30;11.25;;;6.55;;
59052;SDS011;44843;44.728;10.396;2023-04-06T13:52:56;9.90;;;5.90;;
59052;SDS011;44843;44.728;10.396;2023-04-06T13:55:21;8.60;;;5.90;;
59052;SDS011;44843;44.728;10.396;2023-04-06T13:57:46;10.32;;;6.85;;
59052;SDS011;44843;44.728;10.396;2023-04-06T14:00:12;11.98;;;5.93;;
59052;SDS011;44843;44.728;10.396;2023-04-06T14:02:38;10.82;;;6.05;;
59052;SDS011;44843;44.728;10.396;2023-04-06T14:05:03;8.63;;;6.13;;
59052;SDS011;44843;44.728;10.396;2023-04-06T14:07:28;8.43;;;6.05;;
59052;SDS011;44843;44.728;10.396;2023-04-06T14:09:54;8.18;;;6.05;;
59052;SDS011;44843;44.728;10.396;2023-04-06T14:12:19;8.02;;;5.45;;
59052;SDS011;44843;44.728;10.396;2023-04-06T14:14:44;11.32;;;6.20;;
59052;SDS011;44843;44.728;10.396;2023-04-06T14:17:09;9.00;;;5.22;;
59052;SDS011;44843;44.728;10.396;2023-04-06T14:19:35;11.68;;;6.13;;
59052;SDS011;44843;44.728;10.396;2023-04-06T14:22:01;8.85;;;5.78;;
59052;SDS011;44843;44.728;10.396;2023-04-06T14:24:26;7.93;;;5.40;;
59052;SDS011;44843;44.728;10.396;2023-04-06T14:26:51;7.43;;;5.63;;
59052;SDS011;44843;44.728;10.396;2023-04-06T14:29:17;9.52;;;6.22;;
59052;SDS011;44843;44.728;10.396;2023-04-06T14:31:42;8.77;;;5.65;;
59052;SDS011;44843;44.728;10.396;2023-04-06T14:34:09;10.05;;;6.20;;
59052;SDS011;44843;44.728;10.396;2023-04-06T14:36:35;10.18;;;6.05;;
59052;SDS011;44843;44.728;10.396;2023-04-06T14:39:05;7.55;;;6.00;;
59052;SDS011;44843;44.728;10.396;2023-04-06T14:41:31;8.30;;;5.10;;
59052;SDS011;44843;44.728;10.396;2023-04-06T14:43:56;7.60;;;5.38;;
59052;SDS011;44843;44.728;10.396;2023-04-06T14:46:22;9.50;;;5.75;;
59052;SDS011;44843;44.728;10.396;2023-04-06T14:48:47;10.40;;;6.68;;
59052;SDS011;44843;44.728;10.396;2023-04-06T14:51:12;8.93;;;6.28;;
59052;SDS011;44843;44.728;10.396;2023-04-06T14:53:38;10.98;;;5.78;;
59052;SDS011;44843;44.728;10.396;2023-04-06T14:56:03;12.45;;;6.20;;
59052;SDS011;44843;44.728;10.396;2023-04-06T14:58:28;9.13;;;6.53;;
59052;SDS011;44843;44.728;10.396;2023-04-06T15:00:57;10.75;;;6.75;;
59052;SDS011;44843;44.728;10.396;2023-04-06T15:03:24;7.07;;;5.55;;
59052;SDS011;44843;44.728;10.396;2023-04-06T15:05:50;11.20;;;5.85;;
59052;SDS011;44843;44.728;10.396;2023-04-06T15:08:15;8.85;;;6.43;;
59052;SDS011;44843;44.728;10.396;2023-04-06T15:10:42;10.25;;;5.97;;
59052;SDS011;44843;44.728;10.396;2023-04-06T15:13:07;8.52;;;5.45;;
59052;SDS011;44843;44.728;10.396;2023-04-06T15:15:32;11.20;;;6.10;;
59052;SDS011;44843;44.728;10.396;2023-04-06T15:17:57;11.38;;;6.35;;
59052;SDS011;44843;44.728;10.396;2023-04-06T15:20:23;8.40;;;5.47;;
59052;SDS011;44843;44.728;10.396;2023-04-06T15:22:48;7.65;;;5.68;;
59052;SDS011;44843;44.728;10.396;2023-04-06T15:25:13;12.00;;;6.82;;
59052;SDS011;44843;44.728;10.396;2023-04-06T15:27:39;7.85;;;5.95;;
59052;SDS011;44843;44.728;10.396;2023-04-06T15:30:04;9.60;;;5.90;;
59052;SDS011;44843;44.728;10.396;2023-04-06T15:32:30;10.35;;;5.90;;
59052;SDS011;44843;44.728;10.396;2023-04-06T15:34:55;10.50;;;5.68;;
59052;SDS011;44843;44.728;10.396;2023-04-06T15:37:21;10.10;;;5.65;;
59052;SDS011;44843;44.728;10.396;2023-04-06T15:39:46;7.70;;;5.53;;
59052;SDS011;44843;44.728;10.396;2023-04-06T15:42:11;8.73;;;5.28;;
59052;SDS011;44843;44.728;10.396;2023-04-06T15:44:36;7.35;;;4.82;;
59052;SDS011;44843;44.728;10.396;2023-04-06T15:47:02;7.57;;;5.32;;
59052;SDS011;44843;44.728;10.396;2023-04-06T15:49:27;9.10;;;5.50;;
59052;SDS011;44843;44.728;10.396;2023-04-06T15:51:52;12.10;;;5.72;;
59052;SDS011;44843;44.728;10.396;2023-04-06T15:54:18;7.65;;;5.03;;
59052;SDS011;44843;44.728;10.396;2023-04-06T15:56:45;7.30;;;5.35;;
59052;SDS011;44843;44.728;10.396;2023-04-06T15:59:10;9.35;;;4.97;;
59052;SDS011;44843;44.728;10.396;2023-04-06T16:01:35;8.95;;;5.88;;
59052;SDS011;44843;44.728;10.396;2023-04-06T16:04:01;9.38;;;5.53;;
59052;SDS011;44843;44.728;10.396;2023-04-06T16:06:26;10.23;;;5.97;;
59052;SDS011;44843;44.728;10.396;2023-04-06T16:08:51;9.93;;;5.43;;
59052;SDS011;44843;44.728;10.396;2023-04-06T16:11:16;10.70;;;5.28;;
59052;SDS011;44843;44.728;10.396;2023-04-06T16:13:42;7.97;;;5.68;;
59052;SDS011;44843;44.728;10.396;2023-04-06T16:16:07;9.23;;;5.50;;
59052;SDS011;44843;44.728;10.396;2023-04-06T16:18:32;7.28;;;5.15;;
59052;SDS011;44843;44.728;10.396;2023-04-06T16:20:57;9.65;;;5.32;;
59052;SDS011;44843;44.728;10.396;2023-04-06T16:23:23;10.10;;;5.82;;
59052;SDS011;44843;44.728;10.396;2023-04-06T16:25:49;8.05;;;5.45;;
59052;SDS011;44843;44.728;10.396;2023-04-06T16:28:15;9.20;;;5.68;;
59052;SDS011;44843;44.728;10.396;2023-04-06T16:30:40;8.98;;;5.18;;
59052;SDS011;44843;44.728;10.396;2023-04-06T16:33:05;8.07;;;5.07;;
59052;SDS011;44843;44.728;10.396;2023-04-06T16:35:31;9.40;;;5.35;;
59052;SDS011;44843;44.728;10.396;2023-04-06T16:37:57;9.90;;;5.22;;
59052;SDS011;44843;44.728;10.396;2023-04-06T16:40:23;9.80;;;5.63;;
59052;SDS011;44843;44.728;10.396;2023-04-06T16:42:48;11.65;;;6.40;;
59052;SDS011;44843;44.728;10.396;2023-04-06T16:45:13;9.13;;;5.70;;
59052;SDS011;44843;44.728;10.396;2023-04-06T16:47:39;8.93;;;5.43;;
59052;SDS011;44843;44.728;10.396;2023-04-06T16:50:05;10.23;;;5.57;;
59052;SDS011;44843;44.728;10.396;2023-04-06T16:52:30;10.95;;;5.43;;
59052;SDS011;44843;44.728;10.396;2023-04-06T16:54:56;8.88;;;5.05;;
59052;SDS011;44843;44.728;10.396;2023-04-06T16:57:21;9.95;;;5.63;;
59052;SDS011;44843;44.728;10.396;2023-04-06T16:59:48;11.27;;;5.38;;
59052;SDS011;44843;44.728;10.396;2023-04-06T17:02:14;11.02;;;6.00;;
59052;SDS011;44843;44.728;10.396;2023-04-06T17:04:39;10.45;;;5.70;;
59052;SDS011;44843;44.728;10.396;2023-04-06T17:07:04;8.20;;;5.13;;
59052;SDS011;44843;44.728;10.396;2023-04-06T17:09:30;7.97;;;5.47;;
59052;SDS011;44843;44.728;10.396;2023-04-06T17:11:56;10.73;;;5.40;;
59052;SDS011;44843;44.728;10.396;2023-04-06T17:14:22;10.52;;;5.55;;
59052;SDS011;44843;44.728;10.396;2023-04-06T17:16:47;12.48;;;6.10;;
59052;SDS011;44843;44.728;10.396;2023-04-06T17:19:12;13.57;;;6.72;;
59052;SDS011;44843;44.728;10.396;2023-04-06T17:21:38;11.43;;;6.35;;
59052;SDS011;44843;44.728;10.396;2023-04-06T17:24:03;12.02;;;6.13;;
59052;SDS011;44843;44.728;10.396;2023-04-06T17:26:28;13.10;;;6.07;;
59052;SDS011;44843;44.728;10.396;2023-04-06T17:28:54;9.10;;;6.05;;
59052;SDS011;44843;44.728;10.396;2023-04-06T17:31:19;9.18;;;6.32;;
59052;SDS011;44843;44.728;10.396;2023-04-06T17:33:44;10.43;;;6.65;;
59052;SDS011;44843;44.728;10.396;2023-04-06T17:36:11;9.27;;;6.25;;
59052;SDS011;44843;44.728;10.396;2023-04-06T17:38:37;10.10;;;6.47;;
59052;SDS011;44843;44.728;10.396;2023-04-06T17:41:03;9.20;;;5.82;;
59052;SDS011;44843;44.728;10.396;2023-04-06T17:43:31;10.75;;;6.30;;
59052;SDS011;44843;44.728;10.396;2023-04-06T17:45:57;13.55;;;6.75;;
59052;SDS011;44843;44.728;10.396;2023-04-06T17:48:22;10.85;;;6.30;;
59052;SDS011;44843;44.728;10.396;2023-04-06T17:50:48;12.63;;;6.90;;
59052;SDS011;44843;44.728;10.396;2023-04-06T17:53:13;16.70;;;6.55;;
59052;SDS011;44843;44.728;10.396;2023-04-06T17:55:38;13.07;;;7.65;;
59052;SDS011;44843;44.728;10.396;2023-04-06T17:58:03;11.30;;;7.95;;
59052;SDS011;44843;44.728;10.396;2023-04-06T18:00:29;15.25;;;8.20;;
59052;SDS011;44843;44.728;10.396;2023-04-06T18:02:54;16.90;;;8.00;;
59052;SDS011;44843;44.728;10.396;2023-04-06T18:05:20;13.23;;;7.82;;
59052;SDS011;44843;44.728;10.396;2023-04-06T18:07:46;13.60;;;8.38;;
59052;SDS011;44843;44.728;10.396;2023-04-06T18:10:11;15.50;;;8.45;;
59052;SDS011;44843;44.728;10.396;2023-04-06T18:12:37;21.77;;;11.77;;
59052;SDS011;44843;44.728;10.396;2023-04-06T18:15:02;26.05;;;13.80;;
59052;SDS011;44843;44.728;10.396;2023-04-06T18:17:28;24.60;;;12.73;;
59052;SDS011;44843;44.728;10.396;2023-04-06T18:19:53;21.35;;;9.52;;
59052;SDS011;44843;44.728;10.396;2023-04-06T18:22:18;19.05;;;9.90;;
59052;SDS011;44843;44.728;10.396;2023-04-06T18:24:44;16.73;;;9.38;;
59052;SDS011;44843;44.728;10.396;2023-04-06T18:27:10;18.88;;;11.05;;
59052;SDS011;44843;44.728;10.396;2023-04-06T18:29:36;19.33;;;12.60;;
59052;SDS011;44843;44.728;10.396;2023-04-06T18:32:02;15.98;;;9.77;;
59052;SDS011;44843;44.728;10.396;2023-04-06T18:34:27;19.52;;;9.32;;
59052;SDS011;44843;44.728;10.396;2023-04-06T18:36:52;19.38;;;9.95;;
59052;SDS011;44843;44.728;10.396;2023-04-06T18:39:17;18.55;;;10.02;;
59052;SDS011;44843;44.728;10.396;2023-04-06T18:41:43;17.80;;;8.98;;
59052;SDS011;44843;44.728;10.396;2023-04-06T18:44:08;15.98;;;8.82;;
59052;SDS011;44843;44.728;10.396;2023-04-06T18:46:33;16.13;;;9.15;;
59052;SDS011;44843;44.728;10.396;2023-04-06T18:48:58;17.42;;;9.85;;
59052;SDS011;44843;44.728;10.396;2023-04-06T18:51:27;24.98;;;10.43;;
59052;SDS011;44843;44.728;10.396;2023-04-06T18:53:53;23.02;;;11.15;;
59052;SDS011;44843;44.728;10.396;2023-04-06T18:56:19;18.10;;;10.73;;
59052;SDS011;44843;44.728;10.396;2023-04-06T18:58:45;19.35;;;10.73;;
59052;SDS011;44843;44.728;10.396;2023-04-06T19:01:26;23.63;;;10.65;;
59052;SDS011;44843;44.728;10.396;2023-04-06T19:03:51;22.02;;;11.15;;
59052;SDS011;44843;44.728;10.396;2023-04-06T19:06:17;20.05;;;10.98;;
59052;SDS011;44843;44.728;10.396;2023-04-06T19:08:43;20.30;;;11.57;;
59052;SDS011;44843;44.728;10.396;2023-04-06T19:11:08;21.40;;;10.68;;
59052;SDS011;44843;44.728;10.396;2023-04-06T19:13:33;20.20;;;10.25;;
59052;SDS011;44843;44.728;10.396;2023-04-06T19:15:59;19.33;;;10.95;;
59052;SDS011;44843;44.728;10.396;2023-04-06T19:18:24;22.17;;;11.40;;
59052;SDS011;44843;44.728;10.396;2023-04-06T19:20:50;20.33;;;11.65;;
59052;SDS011;44843;44.728;10.396;2023-04-06T19:23:16;22.60;;;13.30;;
59052;SDS011;44843;44.728;10.396;2023-04-06T19:25:41;27.23;;;15.15;;
59052;SDS011;44843;44.728;10.396;2023-04-06T19:28:07;26.23;;;15.80;;
59052;SDS011;44843;44.728;10.396;2023-04-06T19:30:34;30.90;;;15.45;;
59052;SDS011;44843;44.728;10.396;2023-04-06T19:33:00;19.95;;;12.82;;
59052;SDS011;44843;44.728;10.396;2023-04-06T19:35:25;18.00;;;10.93;;
59052;SDS011;44843;44.728;10.396;2023-04-06T19:37:50;15.63;;;10.18;;